sensor_id;sensor_type;location;lat;lon;timestamp;P1;durP1;ratioP1;P2;durP2;ratioP2
57317;SDS011;43157;50.982;18.132;2024-03-23T00:53:13;21.60;;;8.60;;
57317;SDS011;43157;50.982;18.132;2024-03-23T00:55:41;21.20;;;9.30;;
57317;SDS011;43157;50.982;18.132;2024-03-23T00:58:07;20.40;;;8.50;;
57317;SDS011;43157;50.982;18.132;2024-03-23T01:00:33;21.70;;;8.50;;
57317;SDS011;43157;50.982;18.132;2024-03-23T01:02:59;21.70;;;8.40;;
57317;SDS011;43157;50.982;18.132;2024-03-23T01:05:26;24.00;;;9.40;;
57317;SDS011;43157;50.982;18.132;2024-03-23T01:07:52;20.40;;;8.50;;
57317;SDS011;43157;50.982;18.132;2024-03-23T01:10:18;22.20;;;9.30;;
57317;SDS011;43157;50.982;18.132;2024-03-23T01:12:44;23.00;;;9.50;;
57317;SDS011;43157;50.982;18.132;2024-03-23T01:15:10;24.90;;;9.80;;
57317;SDS011;43157;50.982;18.132;2024-03-23T01:17:36;26.00;;;10.40;;
57317;SDS011;43157;50.982;18.132;2024-03-23T01:20:02;24.60;;;10.20;;
57317;SDS011;43157;50.982;18.132;2024-03-23T01:22:28;25.50;;;10.70;;
57317;SDS011;43157;50.982;18.132;2024-03-23T01:24:55;27.30;;;11.10;;
57317;SDS011;43157;50.982;18.132;2024-03-23T01:27:21;24.40;;;10.80;;
57317;SDS011;43157;50.982;18.132;2024-03-23T01:29:47;28.40;;;12.00;;
57317;SDS011;43157;50.982;18.132;2024-03-23T01:32:13;27.90;;;11.80;;
57317;SDS011;43157;50.982;18.132;2024-03-23T01:34:39;27.10;;;12.00;;
57317;SDS011;43157;50.982;18.132;2024-03-23T01:37:05;24.60;;;10.70;;
57317;SDS011;43157;50.982;18.132;2024-03-23T01:39:32;25.60;;;11.70;;
57317;SDS011;43157;50.982;18.132;2024-03-23T01:41:58;24.70;;;10.90;;
57317;SDS011;43157;50.982;18.132;2024-03-23T01:44:24;24.60;;;10.70;;
57317;SDS011;43157;50.982;18.132;2024-03-23T01:46:50;25.20;;;11.20;;
57317;SDS011;43157;50.982;18.132;2024-03-23T01:49:17;26.30;;;11.40;;
57317;SDS011;43157;50.982;18.132;2024-03-23T01:51:42;26.60;;;11.30;;
57317;SDS011;43157;50.982;18.132;2024-03-23T01:54:09;26.60;;;11.10;;
57317;SDS011;43157;50.982;18.132;2024-03-23T01:56:35;30.50;;;11.90;;
57317;SDS011;43157;50.982;18.132;2024-03-23T01:59:05;28.30;;;12.70;;
57317;SDS011;43157;50.982;18.132;2024-03-23T02:01:31;25.20;;;11.90;;
57317;SDS011;43157;50.982;18.132;2024-03-23T02:03:58;28.90;;;12.80;;
57317;SDS011;43157;50.982;18.132;2024-03-23T02:06:24;27.10;;;12.30;;
57317;SDS011;43157;50.982;18.132;2024-03-23T02:08:51;28.50;;;12.60;;
57317;SDS011;43157;50.982;18.132;2024-03-23T02:11:17;26.90;;;11.90;;
57317;SDS011;43157;50.982;18.132;2024-03-23T02:13:42;28.80;;;12.10;;
57317;SDS011;43157;50.982;18.132;2024-03-23T02:16:08;25.00;;;10.60;;
57317;SDS011;43157;50.982;18.132;2024-03-23T02:18:34;24.00;;;10.70;;
57317;SDS011;43157;50.982;18.132;2024-03-23T02:21:01;23.80;;;10.60;;
57317;SDS011;43157;50.982;18.132;2024-03-23T02:23:27;27.00;;;11.80;;
57317;SDS011;43157;50.982;18.132;2024-03-23T02:25:53;26.60;;;11.40;;
57317;SDS011;43157;50.982;18.132;2024-03-23T02:28:19;25.60;;;11.30;;
57317;SDS011;43157;50.982;18.132;2024-03-23T02:30:45;25.20;;;10.60;;
57317;SDS011;43157;50.982;18.132;2024-03-23T02:33:12;26.70;;;10.50;;
57317;SDS011;43157;50.982;18.132;2024-03-23T02:35:38;27.30;;;11.70;;
57317;SDS011;43157;50.982;18.132;2024-03-23T02:38:04;28.00;;;11.40;;
57317;SDS011;43157;50.982;18.132;2024-03-23T02:40:30;24.50;;;11.60;;
57317;SDS011;43157;50.982;18.132;2024-03-23T02:42:56;27.40;;;11.90;;
57317;SDS011;43157;50.982;18.132;2024-03-23T02:45:23;28.80;;;12.30;;
57317;SDS011;43157;50.982;18.132;2024-03-23T02:47:49;27.40;;;12.90;;
57317;SDS011;43157;50.982;18.132;2024-03-23T02:50:21;27.10;;;12.10;;
57317;SDS011;43157;50.982;18.132;2024-03-23T02:52:47;27.30;;;12.00;;
57317;SDS011;43157;50.982;18.132;2024-03-23T02:55:13;24.10;;;11.50;;
57317;SDS011;43157;50.982;18.132;2024-03-23T02:57:39;23.40;;;11.40;;
57317;SDS011;43157;50.982;18.132;2024-03-23T03:00:06;26.60;;;11.50;;
57317;SDS011;43157;50.982;18.132;2024-03-23T03:02:33;24.70;;;10.30;;
57317;SDS011;43157;50.982;18.132;2024-03-23T03:04:59;24.90;;;11.10;;
57317;SDS011;43157;50.982;18.132;2024-03-23T03:07:25;26.60;;;11.20;;
57317;SDS011;43157;50.982;18.132;2024-03-23T03:09:51;27.20;;;11.80;;
57317;SDS011;43157;50.982;18.132;2024-03-23T03:12:18;25.50;;;12.00;;
57317;SDS011;43157;50.982;18.132;2024-03-23T03:14:44;28.30;;;12.50;;
57317;SDS011;43157;50.982;18.132;2024-03-23T03:17:10;27.40;;;11.40;;
57317;SDS011;43157;50.982;18.132;2024-03-23T03:19:36;26.00;;;10.70;;
57317;SDS011;43157;50.982;18.132;2024-03-23T03:22:02;25.40;;;10.90;;
57317;SDS011;43157;50.982;18.132;2024-03-23T03:24:29;22.90;;;11.30;;
57317;SDS011;43157;50.982;18.132;2024-03-23T03:26:55;27.10;;;11.40;;
57317;SDS011;43157;50.982;18.132;2024-03-23T03:29:23;27.40;;;13.10;;
57317;SDS011;43157;50.982;18.132;2024-03-23T03:31:48;25.30;;;11.20;;
57317;SDS011;43157;50.982;18.132;2024-03-23T03:34:15;25.50;;;10.40;;
57317;SDS011;43157;50.982;18.132;2024-03-23T03:36:41;28.60;;;12.60;;
57317;SDS011;43157;50.982;18.132;2024-03-23T03:39:08;22.20;;;10.50;;
57317;SDS011;43157;50.982;18.132;2024-03-23T03:41:34;25.10;;;10.60;;
57317;SDS011;43157;50.982;18.132;2024-03-23T03:44:00;24.50;;;10.80;;
57317;SDS011;43157;50.982;18.132;2024-03-23T03:46:30;24.30;;;10.90;;
57317;SDS011;43157;50.982;18.132;2024-03-23T03:48:56;24.50;;;11.30;;
57317;SDS011;43157;50.982;18.132;2024-03-23T03:51:22;23.60;;;9.90;;
57317;SDS011;43157;50.982;18.132;2024-03-23T03:53:48;26.40;;;10.50;;
57317;SDS011;43157;50.982;18.132;2024-03-23T03:56:15;24.80;;;11.20;;
57317;SDS011;43157;50.982;18.132;2024-03-23T03:58:41;22.80;;;10.10;;
57317;SDS011;43157;50.982;18.132;2024-03-23T04:01:07;28.10;;;12.70;;
57317;SDS011;43157;50.982;18.132;2024-03-23T04:03:33;24.70;;;11.10;;
57317;SDS011;43157;50.982;18.132;2024-03-23T04:05:59;23.30;;;10.70;;
57317;SDS011;43157;50.982;18.132;2024-03-23T04:08:28;24.30;;;10.30;;
57317;SDS011;43157;50.982;18.132;2024-03-23T04:10:54;24.30;;;10.00;;
57317;SDS011;43157;50.982;18.132;2024-03-23T04:13:21;20.90;;;9.40;;
57317;SDS011;43157;50.982;18.132;2024-03-23T04:15:47;21.00;;;9.00;;
57317;SDS011;43157;50.982;18.132;2024-03-23T04:18:13;22.50;;;9.40;;
57317;SDS011;43157;50.982;18.132;2024-03-23T04:20:39;25.40;;;10.30;;
57317;SDS011;43157;50.982;18.132;2024-03-23T04:23:06;19.70;;;8.60;;
57317;SDS011;43157;50.982;18.132;2024-03-23T04:25:32;20.00;;;8.60;;
57317;SDS011;43157;50.982;18.132;2024-03-23T04:27:58;20.90;;;8.40;;
57317;SDS011;43157;50.982;18.132;2024-03-23T04:30:24;22.60;;;9.70;;
57317;SDS011;43157;50.982;18.132;2024-03-23T04:32:51;22.60;;;9.20;;
57317;SDS011;43157;50.982;18.132;2024-03-23T04:35:18;22.40;;;9.30;;
57317;SDS011;43157;50.982;18.132;2024-03-23T04:37:47;21.70;;;9.80;;
57317;SDS011;43157;50.982;18.132;2024-03-23T04:40:13;23.60;;;10.70;;
57317;SDS011;43157;50.982;18.132;2024-03-23T04:42:40;24.90;;;10.70;;
57317;SDS011;43157;50.982;18.132;2024-03-23T04:45:06;25.90;;;10.10;;
57317;SDS011;43157;50.982;18.132;2024-03-23T04:47:32;24.90;;;11.00;;
57317;SDS011;43157;50.982;18.132;2024-03-23T04:49:58;22.40;;;11.00;;
57317;SDS011;43157;50.982;18.132;2024-03-23T04:52:25;20.00;;;9.20;;
57317;SDS011;43157;50.982;18.132;2024-03-23T04:54:51;20.80;;;9.00;;
57317;SDS011;43157;50.982;18.132;2024-03-23T04:57:17;20.80;;;8.70;;
57317;SDS011;43157;50.982;18.132;2024-03-23T04:59:43;22.50;;;8.90;;
57317;SDS011;43157;50.982;18.132;2024-03-23T05:02:09;23.00;;;9.30;;
57317;SDS011;43157;50.982;18.132;2024-03-23T05:04:35;20.90;;;9.60;;
57317;SDS011;43157;50.982;18.132;2024-03-23T05:07:03;24.30;;;9.90;;
57317;SDS011;43157;50.982;18.132;2024-03-23T05:09:30;20.50;;;9.10;;
57317;SDS011;43157;50.982;18.132;2024-03-23T05:11:56;21.30;;;9.10;;
57317;SDS011;43157;50.982;18.132;2024-03-23T05:14:22;20.80;;;9.40;;
57317;SDS011;43157;50.982;18.132;2024-03-23T05:16:48;21.60;;;9.30;;
57317;SDS011;43157;50.982;18.132;2024-03-23T05:19:15;22.50;;;9.60;;
57317;SDS011;43157;50.982;18.132;2024-03-23T05:21:41;21.20;;;8.80;;
57317;SDS011;43157;50.982;18.132;2024-03-23T05:24:07;22.60;;;9.80;;
57317;SDS011;43157;50.982;18.132;2024-03-23T05:26:34;20.60;;;8.90;;
57317;SDS011;43157;50.982;18.132;2024-03-23T05:29:01;19.30;;;7.90;;
57317;SDS011;43157;50.982;18.132;2024-03-23T05:31:28;19.60;;;8.90;;
57317;SDS011;43157;50.982;18.132;2024-03-23T05:33:56;18.60;;;8.20;;
57317;SDS011;43157;50.982;18.132;2024-03-23T05:36:22;20.30;;;8.30;;
57317;SDS011;43157;50.982;18.132;2024-03-23T05:38:50;19.90;;;7.40;;
57317;SDS011;43157;50.982;18.132;2024-03-23T05:41:16;18.70;;;8.30;;
57317;SDS011;43157;50.982;18.132;2024-03-23T05:43:42;19.40;;;8.60;;
57317;SDS011;43157;50.982;18.132;2024-03-23T05:46:08;21.50;;;8.90;;
57317;SDS011;43157;50.982;18.132;2024-03-23T05:48:34;20.20;;;8.20;;
57317;SDS011;43157;50.982;18.132;2024-03-23T05:51:01;24.00;;;10.30;;
57317;SDS011;43157;50.982;18.132;2024-03-23T05:53:27;28.80;;;13.40;;
57317;SDS011;43157;50.982;18.132;2024-03-23T05:56:02;27.00;;;12.10;;
57317;SDS011;43157;50.982;18.132;2024-03-23T05:58:34;22.30;;;10.60;;
57317;SDS011;43157;50.982;18.132;2024-03-23T06:01:01;21.40;;;8.80;;
57317;SDS011;43157;50.982;18.132;2024-03-23T06:03:28;21.30;;;8.70;;
57317;SDS011;43157;50.982;18.132;2024-03-23T06:05:54;22.60;;;8.90;;
57317;SDS011;43157;50.982;18.132;2024-03-23T06:08:20;22.80;;;9.30;;
57317;SDS011;43157;50.982;18.132;2024-03-23T06:10:46;23.70;;;9.10;;
57317;SDS011;43157;50.982;18.132;2024-03-23T06:13:13;22.50;;;10.00;;
57317;SDS011;43157;50.982;18.132;2024-03-23T06:15:39;20.00;;;9.90;;
57317;SDS011;43157;50.982;18.132;2024-03-23T06:18:05;20.80;;;9.00;;
57317;SDS011;43157;50.982;18.132;2024-03-23T06:20:33;22.50;;;10.80;;
57317;SDS011;43157;50.982;18.132;2024-03-23T06:23:00;22.70;;;9.70;;
57317;SDS011;43157;50.982;18.132;2024-03-23T06:25:27;22.30;;;9.50;;
57317;SDS011;43157;50.982;18.132;2024-03-23T06:27:53;23.80;;;9.80;;
57317;SDS011;43157;50.982;18.132;2024-03-23T06:30:19;25.50;;;10.00;;
57317;SDS011;43157;50.982;18.132;2024-03-23T06:32:45;21.50;;;9.00;;
57317;SDS011;43157;50.982;18.132;2024-03-23T06:35:11;24.60;;;10.00;;
57317;SDS011;43157;50.982;18.132;2024-03-23T06:37:38;24.90;;;10.90;;
57317;SDS011;43157;50.982;18.132;2024-03-23T06:40:04;23.80;;;10.70;;
57317;SDS011;43157;50.982;18.132;2024-03-23T06:42:35;25.30;;;11.70;;
57317;SDS011;43157;50.982;18.132;2024-03-23T06:45:02;23.20;;;10.00;;
57317;SDS011;43157;50.982;18.132;2024-03-23T06:47:29;21.60;;;10.40;;
57317;SDS011;43157;50.982;18.132;2024-03-23T06:49:55;23.90;;;11.20;;
57317;SDS011;43157;50.982;18.132;2024-03-23T06:52:21;25.50;;;11.80;;
57317;SDS011;43157;50.982;18.132;2024-03-23T06:54:47;28.00;;;11.30;;
57317;SDS011;43157;50.982;18.132;2024-03-23T06:57:13;22.90;;;9.50;;
57317;SDS011;43157;50.982;18.132;2024-03-23T06:59:40;21.40;;;9.90;;
57317;SDS011;43157;50.982;18.132;2024-03-23T07:02:06;24.30;;;9.80;;
57317;SDS011;43157;50.982;18.132;2024-03-23T07:04:34;22.20;;;10.60;;
57317;SDS011;43157;50.982;18.132;2024-03-23T07:07:00;22.60;;;10.10;;
57317;SDS011;43157;50.982;18.132;2024-03-23T07:09:29;18.90;;;9.60;;
57317;SDS011;43157;50.982;18.132;2024-03-23T07:11:58;21.30;;;9.80;;
57317;SDS011;43157;50.982;18.132;2024-03-23T07:14:24;19.20;;;9.10;;
57317;SDS011;43157;50.982;18.132;2024-03-23T07:16:50;22.10;;;9.40;;
57317;SDS011;43157;50.982;18.132;2024-03-23T07:19:16;19.60;;;9.70;;
57317;SDS011;43157;50.982;18.132;2024-03-23T07:21:43;20.20;;;9.40;;
57317;SDS011;43157;50.982;18.132;2024-03-23T07:24:10;19.80;;;9.50;;
57317;SDS011;43157;50.982;18.132;2024-03-23T07:26:36;20.10;;;9.20;;
57317;SDS011;43157;50.982;18.132;2024-03-23T07:29:03;22.20;;;9.80;;
57317;SDS011;43157;50.982;18.132;2024-03-23T07:43:57;18.60;;;8.50;;
57317;SDS011;43157;50.982;18.132;2024-03-23T07:46:23;17.80;;;9.20;;
57317;SDS011;43157;50.982;18.132;2024-03-23T07:48:51;18.70;;;8.40;;
57317;SDS011;43157;50.982;18.132;2024-03-23T07:51:20;19.90;;;8.40;;
57317;SDS011;43157;50.982;18.132;2024-03-23T07:53:48;21.40;;;8.90;;
57317;SDS011;43157;50.982;18.132;2024-03-23T07:56:14;18.80;;;8.20;;
57317;SDS011;43157;50.982;18.132;2024-03-23T07:58:41;19.60;;;8.90;;
57317;SDS011;43157;50.982;18.132;2024-03-23T08:01:11;19.50;;;8.90;;
57317;SDS011;43157;50.982;18.132;2024-03-23T08:03:38;19.30;;;9.50;;
57317;SDS011;43157;50.982;18.132;2024-03-23T08:06:09;21.90;;;8.90;;
57317;SDS011;43157;50.982;18.132;2024-03-23T08:08:36;18.80;;;8.40;;
57317;SDS011;43157;50.982;18.132;2024-03-23T08:11:02;20.90;;;8.80;;
57317;SDS011;43157;50.982;18.132;2024-03-23T08:13:29;20.70;;;8.40;;
57317;SDS011;43157;50.982;18.132;2024-03-23T08:15:56;19.40;;;8.20;;
57317;SDS011;43157;50.982;18.132;2024-03-23T08:18:25;18.90;;;8.10;;
57317;SDS011;43157;50.982;18.132;2024-03-23T08:21:01;15.50;;;7.30;;
57317;SDS011;43157;50.982;18.132;2024-03-23T08:23:29;19.00;;;8.60;;
57317;SDS011;43157;50.982;18.132;2024-03-23T08:26:05;19.40;;;8.70;;
57317;SDS011;43157;50.982;18.132;2024-03-23T08:28:32;18.80;;;8.20;;
57317;SDS011;43157;50.982;18.132;2024-03-23T08:31:02;16.90;;;8.40;;
57317;SDS011;43157;50.982;18.132;2024-03-23T08:33:29;18.50;;;7.50;;
57317;SDS011;43157;50.982;18.132;2024-03-23T08:35:56;17.20;;;8.10;;
57317;SDS011;43157;50.982;18.132;2024-03-23T08:38:23;16.80;;;7.10;;
57317;SDS011;43157;50.982;18.132;2024-03-23T08:41:02;15.30;;;7.90;;
57317;SDS011;43157;50.982;18.132;2024-03-23T08:43:29;17.10;;;7.90;;
57317;SDS011;43157;50.982;18.132;2024-03-23T08:46:03;17.50;;;7.10;;
57317;SDS011;43157;50.982;18.132;2024-03-23T08:48:32;17.70;;;7.90;;
57317;SDS011;43157;50.982;18.132;2024-03-23T08:51:00;16.50;;;7.70;;
57317;SDS011;43157;50.982;18.132;2024-03-23T08:53:27;15.30;;;7.50;;
57317;SDS011;43157;50.982;18.132;2024-03-23T08:55:54;17.60;;;7.00;;
57317;SDS011;43157;50.982;18.132;2024-03-23T08:58:20;14.90;;;7.00;;
57317;SDS011;43157;50.982;18.132;2024-03-23T09:00:47;14.80;;;6.70;;
57317;SDS011;43157;50.982;18.132;2024-03-23T09:03:13;14.20;;;6.70;;
57317;SDS011;43157;50.982;18.132;2024-03-23T09:05:39;18.50;;;7.00;;
57317;SDS011;43157;50.982;18.132;2024-03-23T09:08:05;17.30;;;7.00;;
57317;SDS011;43157;50.982;18.132;2024-03-23T09:10:35;17.90;;;7.10;;
57317;SDS011;43157;50.982;18.132;2024-03-23T09:13:04;18.30;;;7.50;;
57317;SDS011;43157;50.982;18.132;2024-03-23T09:15:31;15.70;;;6.40;;
57317;SDS011;43157;50.982;18.132;2024-03-23T09:17:59;13.80;;;6.00;;
57317;SDS011;43157;50.982;18.132;2024-03-23T09:20:25;16.80;;;6.60;;
57317;SDS011;43157;50.982;18.132;2024-03-23T09:22:51;12.80;;;5.00;;
57317;SDS011;43157;50.982;18.132;2024-03-23T09:25:17;16.80;;;6.60;;
57317;SDS011;43157;50.982;18.132;2024-03-23T09:27:45;16.80;;;6.70;;
57317;SDS011;43157;50.982;18.132;2024-03-23T09:30:12;14.40;;;7.70;;
57317;SDS011;43157;50.982;18.132;2024-03-23T09:32:39;15.50;;;6.80;;
57317;SDS011;43157;50.982;18.132;2024-03-23T09:35:05;15.10;;;7.00;;
57317;SDS011;43157;50.982;18.132;2024-03-23T09:37:31;14.70;;;7.20;;
57317;SDS011;43157;50.982;18.132;2024-03-23T09:39:57;15.20;;;6.40;;
57317;SDS011;43157;50.982;18.132;2024-03-23T09:42:22;14.10;;;6.20;;
57317;SDS011;43157;50.982;18.132;2024-03-23T09:44:49;15.90;;;7.30;;
57317;SDS011;43157;50.982;18.132;2024-03-23T09:47:16;17.30;;;8.00;;
57317;SDS011;43157;50.982;18.132;2024-03-23T09:49:42;17.50;;;7.50;;
57317;SDS011;43157;50.982;18.132;2024-03-23T09:52:09;19.40;;;7.00;;
57317;SDS011;43157;50.982;18.132;2024-03-23T09:54:35;18.80;;;8.50;;
57317;SDS011;43157;50.982;18.132;2024-03-23T09:57:02;15.40;;;6.70;;
57317;SDS011;43157;50.982;18.132;2024-03-23T09:59:29;14.80;;;5.80;;
57317;SDS011;43157;50.982;18.132;2024-03-23T10:01:55;16.40;;;7.00;;
57317;SDS011;43157;50.982;18.132;2024-03-23T10:04:37;14.20;;;6.80;;
57317;SDS011;43157;50.982;18.132;2024-03-23T10:07:10;16.40;;;7.40;;
57317;SDS011;43157;50.982;18.132;2024-03-23T10:09:40;17.50;;;8.60;;
57317;SDS011;43157;50.982;18.132;2024-03-23T10:12:09;14.50;;;6.50;;
57317;SDS011;43157;50.982;18.132;2024-03-23T10:14:41;13.90;;;6.20;;
57317;SDS011;43157;50.982;18.132;2024-03-23T10:17:11;13.60;;;6.80;;
57317;SDS011;43157;50.982;18.132;2024-03-23T10:22:17;12.20;;;6.00;;
57317;SDS011;43157;50.982;18.132;2024-03-23T10:24:47;13.30;;;6.60;;
57317;SDS011;43157;50.982;18.132;2024-03-23T10:27:17;14.50;;;6.20;;
57317;SDS011;43157;50.982;18.132;2024-03-23T10:29:44;12.70;;;6.00;;
57317;SDS011;43157;50.982;18.132;2024-03-23T10:32:11;13.10;;;5.70;;
57317;SDS011;43157;50.982;18.132;2024-03-23T10:34:37;14.90;;;7.00;;
57317;SDS011;43157;50.982;18.132;2024-03-23T10:37:04;13.80;;;5.50;;
57317;SDS011;43157;50.982;18.132;2024-03-23T10:39:34;15.60;;;6.80;;
57317;SDS011;43157;50.982;18.132;2024-03-23T10:42:08;15.00;;;7.00;;
57317;SDS011;43157;50.982;18.132;2024-03-23T10:44:35;13.60;;;6.50;;
57317;SDS011;43157;50.982;18.132;2024-03-23T10:47:02;13.30;;;5.70;;
57317;SDS011;43157;50.982;18.132;2024-03-23T10:49:34;19.90;;;9.30;;
57317;SDS011;43157;50.982;18.132;2024-03-23T10:52:03;13.20;;;6.10;;
57317;SDS011;43157;50.982;18.132;2024-03-23T10:54:30;14.40;;;6.80;;
57317;SDS011;43157;50.982;18.132;2024-03-23T10:56:57;14.80;;;6.90;;
57317;SDS011;43157;50.982;18.132;2024-03-23T10:59:27;13.90;;;6.10;;
57317;SDS011;43157;50.982;18.132;2024-03-23T11:01:55;14.80;;;6.70;;
57317;SDS011;43157;50.982;18.132;2024-03-23T11:09:53;16.70;;;6.90;;
57317;SDS011;43157;50.982;18.132;2024-03-23T11:15:04;13.30;;;5.40;;
57317;SDS011;43157;50.982;18.132;2024-03-23T11:17:31;18.20;;;7.10;;
57317;SDS011;43157;50.982;18.132;2024-03-23T11:22:39;15.00;;;6.10;;
57317;SDS011;43157;50.982;18.132;2024-03-23T11:27:51;14.30;;;5.40;;
57317;SDS011;43157;50.982;18.132;2024-03-23T11:32:48;13.20;;;5.00;;
57317;SDS011;43157;50.982;18.132;2024-03-23T11:35:34;15.70;;;5.60;;
57317;SDS011;43157;50.982;18.132;2024-03-23T11:40:29;10.60;;;4.70;;
57317;SDS011;43157;50.982;18.132;2024-03-23T11:43:03;12.10;;;4.50;;
57317;SDS011;43157;50.982;18.132;2024-03-23T11:45:43;11.20;;;4.30;;
57317;SDS011;43157;50.982;18.132;2024-03-23T11:48:12;10.20;;;4.60;;
57317;SDS011;43157;50.982;18.132;2024-03-23T11:50:39;11.50;;;5.10;;
57317;SDS011;43157;50.982;18.132;2024-03-23T11:53:07;12.60;;;5.00;;
57317;SDS011;43157;50.982;18.132;2024-03-23T11:58:17;12.80;;;4.70;;
57317;SDS011;43157;50.982;18.132;2024-03-23T12:00:50;10.80;;;4.00;;
57317;SDS011;43157;50.982;18.132;2024-03-23T12:03:22;10.80;;;3.30;;
57317;SDS011;43157;50.982;18.132;2024-03-23T12:05:54;8.40;;;3.40;;
57317;SDS011;43157;50.982;18.132;2024-03-23T12:10:53;8.80;;;3.60;;
57317;SDS011;43157;50.982;18.132;2024-03-23T12:13:29;8.70;;;3.20;;
57317;SDS011;43157;50.982;18.132;2024-03-23T12:15:58;9.40;;;3.60;;
57317;SDS011;43157;50.982;18.132;2024-03-23T12:18:47;7.70;;;3.00;;
57317;SDS011;43157;50.982;18.132;2024-03-23T12:21:14;13.70;;;4.80;;
57317;SDS011;43157;50.982;18.132;2024-03-23T12:23:40;16.70;;;5.50;;
57317;SDS011;43157;50.982;18.132;2024-03-23T12:26:07;10.10;;;3.90;;
57317;SDS011;43157;50.982;18.132;2024-03-23T12:28:33;9.60;;;3.90;;
57317;SDS011;43157;50.982;18.132;2024-03-23T12:30:59;9.10;;;3.40;;
57317;SDS011;43157;50.982;18.132;2024-03-23T12:33:25;9.50;;;3.60;;
57317;SDS011;43157;50.982;18.132;2024-03-23T12:35:52;11.80;;;4.40;;
57317;SDS011;43157;50.982;18.132;2024-03-23T12:38:18;12.00;;;4.60;;
57317;SDS011;43157;50.982;18.132;2024-03-23T12:40:48;11.80;;;5.10;;
57317;SDS011;43157;50.982;18.132;2024-03-23T12:43:14;13.10;;;5.40;;
57317;SDS011;43157;50.982;18.132;2024-03-23T12:45:40;10.60;;;4.20;;
57317;SDS011;43157;50.982;18.132;2024-03-23T12:48:07;14.10;;;4.00;;
57317;SDS011;43157;50.982;18.132;2024-03-23T12:50:33;10.00;;;3.50;;
57317;SDS011;43157;50.982;18.132;2024-03-23T12:52:59;8.50;;;3.20;;
57317;SDS011;43157;50.982;18.132;2024-03-23T12:55:26;9.20;;;2.90;;
57317;SDS011;43157;50.982;18.132;2024-03-23T12:57:52;7.50;;;2.90;;
57317;SDS011;43157;50.982;18.132;2024-03-23T13:00:18;11.30;;;3.20;;
57317;SDS011;43157;50.982;18.132;2024-03-23T13:02:44;8.80;;;3.30;;
57317;SDS011;43157;50.982;18.132;2024-03-23T13:05:11;10.50;;;3.60;;
57317;SDS011;43157;50.982;18.132;2024-03-23T13:07:37;10.90;;;3.70;;
57317;SDS011;43157;50.982;18.132;2024-03-23T13:10:07;9.50;;;3.70;;
57317;SDS011;43157;50.982;18.132;2024-03-23T13:12:34;11.70;;;4.40;;
57317;SDS011;43157;50.982;18.132;2024-03-23T13:15:00;12.20;;;5.00;;
57317;SDS011;43157;50.982;18.132;2024-03-23T13:17:26;11.60;;;5.50;;
57317;SDS011;43157;50.982;18.132;2024-03-23T13:19:53;15.00;;;6.90;;
57317;SDS011;43157;50.982;18.132;2024-03-23T13:22:19;17.30;;;9.90;;
57317;SDS011;43157;50.982;18.132;2024-03-23T13:24:46;18.90;;;9.30;;
57317;SDS011;43157;50.982;18.132;2024-03-23T13:27:12;13.20;;;5.20;;
57317;SDS011;43157;50.982;18.132;2024-03-23T13:29:38;11.70;;;5.30;;
57317;SDS011;43157;50.982;18.132;2024-03-23T13:32:04;12.90;;;5.10;;
57317;SDS011;43157;50.982;18.132;2024-03-23T13:34:31;12.20;;;5.50;;
57317;SDS011;43157;50.982;18.132;2024-03-23T13:36:58;12.00;;;4.70;;
57317;SDS011;43157;50.982;18.132;2024-03-23T13:39:25;22.80;;;10.70;;
57317;SDS011;43157;50.982;18.132;2024-03-23T13:41:52;10.90;;;4.70;;
57317;SDS011;43157;50.982;18.132;2024-03-23T13:44:18;11.40;;;4.80;;
57317;SDS011;43157;50.982;18.132;2024-03-23T13:46:44;14.30;;;6.50;;
57317;SDS011;43157;50.982;18.132;2024-03-23T13:49:28;12.80;;;4.90;;
57317;SDS011;43157;50.982;18.132;2024-03-23T13:51:55;11.40;;;5.60;;
57317;SDS011;43157;50.982;18.132;2024-03-23T13:54:26;12.30;;;4.20;;
57317;SDS011;43157;50.982;18.132;2024-03-23T13:56:53;8.60;;;3.40;;
57317;SDS011;43157;50.982;18.132;2024-03-23T13:59:20;14.30;;;6.00;;
57317;SDS011;43157;50.982;18.132;2024-03-23T14:01:48;12.40;;;5.00;;
57317;SDS011;43157;50.982;18.132;2024-03-23T14:04:14;15.80;;;7.20;;
57317;SDS011;43157;50.982;18.132;2024-03-23T14:06:42;12.30;;;5.50;;
57317;SDS011;43157;50.982;18.132;2024-03-23T14:09:10;12.20;;;6.10;;
57317;SDS011;43157;50.982;18.132;2024-03-23T14:11:40;14.60;;;5.40;;
57317;SDS011;43157;50.982;18.132;2024-03-23T14:14:10;13.60;;;5.70;;
57317;SDS011;43157;50.982;18.132;2024-03-23T14:16:36;13.60;;;4.80;;
57317;SDS011;43157;50.982;18.132;2024-03-23T14:19:03;10.50;;;4.40;;
57317;SDS011;43157;50.982;18.132;2024-03-23T14:21:31;10.70;;;4.20;;
57317;SDS011;43157;50.982;18.132;2024-03-23T14:23:57;14.60;;;5.20;;
57317;SDS011;43157;50.982;18.132;2024-03-23T14:26:23;13.20;;;5.00;;
57317;SDS011;43157;50.982;18.132;2024-03-23T14:28:49;16.00;;;7.40;;
57317;SDS011;43157;50.982;18.132;2024-03-23T14:31:15;16.00;;;6.50;;
57317;SDS011;43157;50.982;18.132;2024-03-23T14:33:42;13.30;;;6.30;;
57317;SDS011;43157;50.982;18.132;2024-03-23T14:36:14;12.00;;;5.70;;
57317;SDS011;43157;50.982;18.132;2024-03-23T14:38:41;12.20;;;4.00;;
57317;SDS011;43157;50.982;18.132;2024-03-23T14:41:08;9.20;;;3.10;;
57317;SDS011;43157;50.982;18.132;2024-03-23T14:43:36;12.00;;;3.20;;
57317;SDS011;43157;50.982;18.132;2024-03-23T14:46:15;8.00;;;2.60;;
57317;SDS011;43157;50.982;18.132;2024-03-23T14:48:42;11.50;;;3.60;;
57317;SDS011;43157;50.982;18.132;2024-03-23T14:51:10;10.90;;;3.90;;
57317;SDS011;43157;50.982;18.132;2024-03-23T14:53:39;9.30;;;3.40;;
57317;SDS011;43157;50.982;18.132;2024-03-23T14:56:07;11.20;;;4.10;;
57317;SDS011;43157;50.982;18.132;2024-03-23T14:58:34;10.80;;;3.90;;
57317;SDS011;43157;50.982;18.132;2024-03-23T15:01:07;28.20;;;13.20;;
57317;SDS011;43157;50.982;18.132;2024-03-23T15:03:40;13.30;;;5.30;;
57317;SDS011;43157;50.982;18.132;2024-03-23T15:06:06;15.70;;;4.60;;
57317;SDS011;43157;50.982;18.132;2024-03-23T15:08:34;8.70;;;3.30;;
57317;SDS011;43157;50.982;18.132;2024-03-23T15:11:01;9.50;;;3.00;;
57317;SDS011;43157;50.982;18.132;2024-03-23T15:13:34;13.90;;;6.30;;
57317;SDS011;43157;50.982;18.132;2024-03-23T15:16:00;12.20;;;4.10;;
57317;SDS011;43157;50.982;18.132;2024-03-23T15:18:26;10.30;;;3.70;;
57317;SDS011;43157;50.982;18.132;2024-03-23T15:20:54;8.70;;;2.80;;
57317;SDS011;43157;50.982;18.132;2024-03-23T15:23:21;7.90;;;2.10;;
57317;SDS011;43157;50.982;18.132;2024-03-23T15:25:53;8.80;;;3.90;;
57317;SDS011;43157;50.982;18.132;2024-03-23T15:28:22;8.20;;;3.00;;
57317;SDS011;43157;50.982;18.132;2024-03-23T15:30:48;7.20;;;2.20;;
57317;SDS011;43157;50.982;18.132;2024-03-23T15:33:15;6.50;;;1.70;;
57317;SDS011;43157;50.982;18.132;2024-03-23T15:35:41;5.70;;;1.90;;
57317;SDS011;43157;50.982;18.132;2024-03-23T15:38:07;8.60;;;2.20;;
57317;SDS011;43157;50.982;18.132;2024-03-23T15:40:33;7.70;;;2.40;;
57317;SDS011;43157;50.982;18.132;2024-03-23T15:42:59;8.10;;;2.10;;
57317;SDS011;43157;50.982;18.132;2024-03-23T15:45:26;8.80;;;2.10;;
57317;SDS011;43157;50.982;18.132;2024-03-23T15:47:52;12.60;;;1.60;;
57317;SDS011;43157;50.982;18.132;2024-03-23T15:50:18;5.60;;;1.40;;